createdAt,value
2022-09-24T00:11:27.175Z,965.71
2022-09-24T00:26:29.003Z,965.86
2022-09-24T00:41:30.855Z,965.8
2022-09-24T00:56:32.705Z,965.74
2022-09-24T01:11:34.426Z,965.63
2022-09-24T01:26:36.278Z,965.74
2022-09-24T01:41:38.104Z,965.89
2022-09-24T01:56:39.930Z,966
2022-09-24T02:11:41.776Z,965.96
2022-09-24T02:26:43.578Z,966.12
2022-09-24T02:41:45.465Z,966.16
2022-09-24T02:56:47.286Z,966.18
2022-09-24T03:11:49.106Z,966.24
2022-09-24T03:26:50.923Z,966.62
2022-09-24T03:41:52.792Z,966.86
2022-09-24T03:56:54.647Z,966.89
2022-09-24T04:11:56.510Z,967.06
2022-09-24T04:26:58.333Z,967.17
2022-09-24T04:42:00.159Z,967.26
2022-09-24T04:57:02.013Z,967.25
2022-09-24T05:12:03.874Z,967.39
2022-09-24T05:27:05.692Z,967.42
2022-09-24T05:42:07.508Z,967.6
2022-09-24T05:57:09.362Z,967.6
2022-09-24T06:12:11.188Z,967.63
2022-09-24T06:27:13.024Z,967.84
2022-09-24T06:42:14.878Z,967.73
2022-09-24T06:57:16.706Z,967.96
2022-09-24T07:12:18.522Z,967.98
2022-09-24T07:27:20.369Z,968.05
2022-09-24T07:42:22.232Z,968.17
2022-09-24T07:57:24.064Z,968.35
2022-09-24T08:12:25.919Z,968.31
2022-09-24T08:27:27.741Z,968.31
2022-09-24T08:42:29.562Z,968.69
2022-09-24T08:57:31.390Z,968.92
2022-09-24T09:12:33.244Z,969.23
2022-09-24T09:27:35.083Z,969.29
2022-09-24T09:42:36.907Z,969.58
2022-09-24T09:57:38.762Z,969.66
2022-09-24T10:12:40.591Z,969.76
2022-09-24T10:27:42.442Z,969.91
2022-09-24T10:42:44.273Z,970.11
2022-09-24T10:57:46.029Z,970.29
2022-09-24T11:12:47.901Z,970.31
2022-09-24T11:27:49.758Z,970.32
2022-09-24T11:42:51.601Z,970.46
2022-09-24T11:57:53.528Z,970.63
2022-09-24T12:12:55.323Z,970.79
2022-09-24T12:27:57.157Z,971
2022-09-24T12:42:58.987Z,971.16
2022-09-24T12:58:00.867Z,971.19
2022-09-24T13:13:02.678Z,971.39
2022-09-24T13:28:04.497Z,971.5
2022-09-24T13:43:06.395Z,971.69
2022-09-24T13:58:08.288Z,971.83
2022-09-24T14:13:10.226Z,972.11
2022-09-24T14:28:12.144Z,972.48
2022-09-24T14:43:14.034Z,972.53
2022-09-24T14:58:15.901Z,972.73
2022-09-24T15:13:17.810Z,972.86
2022-09-24T15:28:19.743Z,973.05
2022-09-24T15:43:21.708Z,973.06
2022-09-24T15:58:23.635Z,973.22
2022-09-24T16:13:25.553Z,973.25
2022-09-24T16:28:27.467Z,973.16
2022-09-24T16:43:29.369Z,973.2
2022-09-24T16:58:31.328Z,973.26
2022-09-24T17:13:33.211Z,973.19
2022-09-24T17:28:35.101Z,973.19
2022-09-24T17:43:37.011Z,973.04
2022-09-24T17:58:38.945Z,973.01
2022-09-24T18:13:40.893Z,972.91
2022-09-24T18:28:42.835Z,972.85
2022-09-24T18:43:44.766Z,972.77
2022-09-24T18:58:46.722Z,972.61
2022-09-24T19:13:48.647Z,972.47
2022-09-24T19:28:50.579Z,972.33
2022-09-24T19:43:52.483Z,972.22
2022-09-24T19:58:54.379Z,972.08
2022-09-24T20:13:56.308Z,972.04
2022-09-24T20:28:58.198Z,971.82
2022-09-24T20:44:00.106Z,971.62
2022-09-24T20:59:02.038Z,971.5
2022-09-24T21:14:04.041Z,971.45
2022-09-24T21:29:06.084Z,971.35
2022-09-24T21:44:07.987Z,971.24
2022-09-24T21:59:09.904Z,971.17
2022-09-24T22:14:11.902Z,971.13
2022-09-24T22:29:13.852Z,971
2022-09-24T22:44:15.774Z,970.85
2022-09-24T22:59:17.658Z,970.82
2022-09-24T23:14:19.497Z,970.83
2022-09-24T23:29:21.406Z,970.75
2022-09-24T23:44:23.298Z,970.78
2022-09-24T23:59:25.210Z,970.73
